Time;durP1;ratioP1;P1;durP2;ratioP2;P2;SDS_P1;SDS_P2;PMS_P1;PMS_P2;Temp;Humidity;BMP_temperature;BMP_pressure;BME280_temperature;BME280_humidity;BME280_pressure;Samples;Min_cycle;Max_cycle;Signal;HPM_P1;HPM_P2
2022/05/10 00:02:09;;;;;;;12.77;4.90;;;;;;;;;;6150632;23;20454;-86
2022/05/10 00:04:35;;;;;;;9.10;4.35;;;;;;;;;;6148553;23;20518;-85
2022/05/10 00:07:01;;;;;;;10.95;5.50;;;;;;;;;;6101629;23;20100;-87
2022/05/10 00:09:29;;;;;;;10.90;4.93;;;;;;;;;;6150066;23;20016;-87
2022/05/10 00:11:55;;;;;;;15.85;5.40;;;;;;;;;;6101710;23;20013;-86
2022/05/10 00:14:22;;;;;;;13.48;4.78;;;;;;;;;;6151038;23;20017;-87
2022/05/10 00:20:16;;;;;;;13.65;4.88;;;;;;;;;;6178197;23;20075;-87
2022/05/10 00:22:43;;;;;;;12.63;5.22;;;;;;;;;;6124932;23;20024;-86
2022/05/10 00:25:10;;;;;;;11.43;4.85;;;;;;;;;;6126033;23;20017;-86
2022/05/10 00:27:37;;;;;;;15.32;5.25;;;;;;;;;;6152232;23;20017;-86
2022/05/10 00:30:04;;;;;;;9.45;4.30;;;;;;;;;;6101126;23;20013;-87
2022/05/10 00:32:35;;;;;;;10.38;4.63;;;;;;;;;;6123544;23;20390;-87
2022/05/10 00:35:02;;;;;;;13.70;5.20;;;;;;;;;;6125750;23;20112;-86
2022/05/10 00:37:28;;;;;;;12.35;5.32;;;;;;;;;;6125978;23;20154;-86
2022/05/10 00:39:54;;;;;;;14.05;5.55;;;;;;;;;;6124708;23;20021;-89
2022/05/10 00:42:24;;;;;;;17.27;5.85;;;;;;;;;;6100319;23;20052;-88
2022/05/10 00:44:52;;;;;;;13.32;5.25;;;;;;;;;;6126267;23;20017;-86
2022/05/10 00:47:22;;;;;;;18.75;6.15;;;;;;;;;;6125481;23;20450;-88
2022/05/10 00:50:04;;;;;;;10.10;5.15;;;;;;;;;;6126543;23;20017;-86
2022/05/10 00:52:43;;;;;;;15.98;5.78;;;;;;;;;;6125455;23;20101;-86
2022/05/10 00:55:13;;;;;;;16.33;6.10;;;;;;;;;;6151302;23;20027;-86
2022/05/10 00:57:48;;;;;;;11.13;5.70;;;;;;;;;;6125897;23;20017;-86
2022/05/10 01:00:25;;;;;;;13.50;5.90;;;;;;;;;;6125316;23;20021;-86
2022/05/10 01:03:10;;;;;;;12.85;5.93;;;;;;;;;;6127649;23;20021;-87
2022/05/10 01:05:49;;;;;;;17.80;5.55;;;;;;;;;;6126721;23;20060;-87
2022/05/10 01:08:35;;;;;;;11.45;5.80;;;;;;;;;;6125511;23;20099;-86
2022/05/10 01:11:05;;;;;;;13.43;5.55;;;;;;;;;;6126642;23;20036;-87
2022/05/10 01:13:31;;;;;;;11.43;5.97;;;;;;;;;;6124641;23;20096;-87
2022/05/10 01:16:16;;;;;;;13.68;5.47;;;;;;;;;;6152732;23;20013;-87
2022/05/10 01:18:43;;;;;;;11.88;6.32;;;;;;;;;;6124759;23;20024;-87
2022/05/10 01:21:29;;;;;;;11.73;5.97;;;;;;;;;;6152203;23;20032;-87
2022/05/10 01:24:05;;;;;;;15.55;6.88;;;;;;;;;;6054644;23;20108;-86
2022/05/10 01:26:34;;;;;;;16.85;6.68;;;;;;;;;;6128510;23;20017;-89
2022/05/10 01:29:05;;;;;;;12.68;6.10;;;;;;;;;;6126897;23;20013;-86
2022/05/10 01:31:33;;;;;;;10.75;6.75;;;;;;;;;;6127780;23;20350;-87
2022/05/10 01:34:04;;;;;;;13.85;6.80;;;;;;;;;;6124786;23;20020;-88
2022/05/10 01:36:33;;;;;;;15.18;6.85;;;;;;;;;;6129979;23;20023;-88
2022/05/10 01:38:59;;;;;;;17.30;6.95;;;;;;;;;;6151048;23;20450;-86
2022/05/10 01:41:32;;;;;;;14.88;6.93;;;;;;;;;;6128785;23;20020;-86
2022/05/10 01:44:04;;;;;;;15.05;6.70;;;;;;;;;;6126713;23;20013;-86
2022/05/10 01:46:31;;;;;;;14.32;7.10;;;;;;;;;;6152244;23;20342;-87
2022/05/10 01:49:05;;;;;;;19.35;6.95;;;;;;;;;;6126345;23;20013;-87
2022/05/10 01:51:33;;;;;;;14.82;7.75;;;;;;;;;;6125318;23;20055;-87
2022/05/10 01:54:00;;;;;;;12.98;7.25;;;;;;;;;;6125054;23;20454;-87
2022/05/10 01:56:28;;;;;;;16.67;7.63;;;;;;;;;;6100926;23;20017;-86
2022/05/10 01:58:55;;;;;;;21.58;7.40;;;;;;;;;;6149392;23;20028;-87
2022/05/10 02:01:28;;;;;;;19.48;7.93;;;;;;;;;;6125150;23;20017;-86
2022/05/10 02:04:03;;;;;;;14.65;8.07;;;;;;;;;;6124025;23;20080;-89
2022/05/10 02:06:29;;;;;;;14.65;7.82;;;;;;;;;;6126430;23;20486;-88
2022/05/10 02:08:59;;;;;;;13.60;7.90;;;;;;;;;;6125535;23;20423;-89
2022/05/10 02:11:25;;;;;;;15.82;8.63;;;;;;;;;;6128381;23;20009;-88
2022/05/10 02:14:06;;;;;;;17.48;8.77;;;;;;;;;;6100561;23;20031;-86
2022/05/10 02:16:42;;;;;;;16.35;8.38;;;;;;;;;;6127039;23;20049;-88
2022/05/10 02:19:17;;;;;;;16.00;8.77;;;;;;;;;;6124824;23;20013;-87
2022/05/10 02:21:54;;;;;;;19.38;8.80;;;;;;;;;;6125998;23;20780;-87
2022/05/10 02:24:48;;;;;;;16.90;9.27;;;;;;;;;;6125509;23;20134;-88
2022/05/10 02:27:19;;;;;;;18.35;9.65;;;;;;;;;;6118850;23;20013;-88
2022/05/10 02:29:54;;;;;;;20.17;8.82;;;;;;;;;;6125834;23;20458;-88
2022/05/10 02:35:13;;;;;;;16.02;8.60;;;;;;;;;;6150014;23;20564;-88
2022/05/10 02:37:40;;;;;;;18.27;10.27;;;;;;;;;;6150675;23;20021;-88
2022/05/10 02:40:06;;;;;;;20.60;9.80;;;;;;;;;;6125230;23;20017;-87
2022/05/10 02:42:33;;;;;;;18.63;9.45;;;;;;;;;;6101224;23;20520;-88
2022/05/10 02:44:59;;;;;;;19.77;9.45;;;;;;;;;;6104173;23;20048;-89
2022/05/10 02:47:33;;;;;;;16.05;10.30;;;;;;;;;;6125372;23;20524;-86
2022/05/10 02:50:00;;;;;;;16.35;10.13;;;;;;;;;;6124835;23;20016;-87
2022/05/10 02:52:26;;;;;;;17.17;10.52;;;;;;;;;;6125443;23;20013;-87
2022/05/10 02:54:56;;;;;;;17.02;10.82;;;;;;;;;;6125205;23;20021;-87
2022/05/10 02:57:23;;;;;;;17.15;10.07;;;;;;;;;;6125343;23;20322;-87
2022/05/10 02:59:50;;;;;;;20.77;10.45;;;;;;;;;;6123826;23;20020;-86
2022/05/10 03:02:22;;;;;;;16.88;11.15;;;;;;;;;;6100095;23;20017;-90
2022/05/10 03:04:58;;;;;;;18.55;11.02;;;;;;;;;;6123597;23;20024;-88
2022/05/10 03:07:29;;;;;;;22.90;11.45;;;;;;;;;;6124647;23;20013;-87
2022/05/10 03:09:55;;;;;;;20.55;11.32;;;;;;;;;;6125794;23;20013;-87
2022/05/10 03:12:21;;;;;;;19.83;11.52;;;;;;;;;;6125756;23;20088;-87
2022/05/10 03:14:47;;;;;;;20.15;12.23;;;;;;;;;;6101241;23;20086;-88
2022/05/10 03:17:13;;;;;;;23.33;11.80;;;;;;;;;;6126756;23;20508;-87
2022/05/10 03:19:40;;;;;;;18.70;12.05;;;;;;;;;;6130619;23;20017;-86
2022/05/10 03:22:07;;;;;;;19.00;12.20;;;;;;;;;;6127012;23;20012;-88
2022/05/10 03:24:33;;;;;;;20.52;12.32;;;;;;;;;;6125648;23;20013;-89
2022/05/10 03:27:00;;;;;;;20.60;11.68;;;;;;;;;;6101053;23;20013;-88
2022/05/10 03:29:26;;;;;;;22.00;12.75;;;;;;;;;;6101380;23;20021;-87
2022/05/10 03:31:53;;;;;;;19.55;12.32;;;;;;;;;;6100197;23;20362;-87
2022/05/10 03:37:05;;;;;;;20.02;12.90;;;;;;;;;;6149921;23;20100;-86
2022/05/10 03:39:31;;;;;;;21.00;13.95;;;;;;;;;;6125370;23;20407;-86
2022/05/10 03:41:57;;;;;;;23.52;12.75;;;;;;;;;;6126333;23;20327;-87
2022/05/10 03:44:23;;;;;;;21.77;13.13;;;;;;;;;;6101618;23;20160;-87
2022/05/10 03:46:49;;;;;;;21.45;14.00;;;;;;;;;;6100906;23;20009;-87
2022/05/10 03:49:16;;;;;;;29.48;14.43;;;;;;;;;;6125201;23;20020;-87
2022/05/10 03:51:42;;;;;;;23.00;14.07;;;;;;;;;;6105118;23;20013;-86
2022/05/10 03:54:08;;;;;;;29.65;14.32;;;;;;;;;;6149483;23;20021;-87
2022/05/10 03:56:34;;;;;;;27.60;14.10;;;;;;;;;;6125857;23;20056;-87
2022/05/10 03:59:01;;;;;;;29.58;16.60;;;;;;;;;;6100475;23;20016;-88
2022/05/10 04:01:27;;;;;;;27.70;14.85;;;;;;;;;;6124295;23;20016;-87
2022/05/10 04:03:53;;;;;;;29.00;14.85;;;;;;;;;;6125170;23;20013;-88
2022/05/10 04:06:19;;;;;;;28.63;15.57;;;;;;;;;;6101511;23;20017;-88
2022/05/10 04:08:45;;;;;;;23.88;15.77;;;;;;;;;;6100606;23;20113;-89
2022/05/10 04:11:12;;;;;;;27.70;15.65;;;;;;;;;;6124887;23;20519;-86
2022/05/10 04:13:39;;;;;;;23.30;15.13;;;;;;;;;;6124592;23;20096;-87
2022/05/10 04:16:06;;;;;;;21.60;14.68;;;;;;;;;;6101025;23;20013;-87
2022/05/10 04:18:32;;;;;;;30.40;15.20;;;;;;;;;;6101240;23;20032;-87
2022/05/10 04:20:58;;;;;;;29.13;15.25;;;;;;;;;;6125765;23;20076;-88
2022/05/10 04:23:24;;;;;;;25.67;15.32;;;;;;;;;;6103572;23;20019;-87
2022/05/10 04:25:53;;;;;;;24.50;15.77;;;;;;;;;;6127035;23;20024;-86
2022/05/10 04:28:19;;;;;;;23.08;14.98;;;;;;;;;;6101764;23;20020;-86
2022/05/10 04:30:46;;;;;;;23.67;15.50;;;;;;;;;;6102244;23;20032;-86
2022/05/10 04:33:12;;;;;;;29.45;16.77;;;;;;;;;;6101128;23;20441;-86
2022/05/10 04:35:38;;;;;;;29.15;16.27;;;;;;;;;;6101054;23;20052;-86
2022/05/10 04:38:04;;;;;;;27.55;16.05;;;;;;;;;;6146395;23;20092;-86
2022/05/10 04:43:16;;;;;;;25.83;17.02;;;;;;;;;;6153128;23;20025;-86
2022/05/10 04:45:42;;;;;;;26.00;15.73;;;;;;;;;;6125059;23;20048;-90
2022/05/10 04:48:08;;;;;;;28.75;16.65;;;;;;;;;;6101517;23;20072;-87
2022/05/10 04:50:34;;;;;;;22.05;14.98;;;;;;;;;;6125028;23;20053;-86
2022/05/10 04:53:03;;;;;;;27.42;15.00;;;;;;;;;;6120422;23;20638;-88
2022/05/10 04:55:29;;;;;;;26.48;15.50;;;;;;;;;;6100311;23;20044;-86
2022/05/10 04:57:55;;;;;;;23.08;16.35;;;;;;;;;;6120201;23;20013;-87
2022/05/10 05:00:23;;;;;;;27.80;15.75;;;;;;;;;;6099917;23;20017;-89
2022/05/10 05:02:49;;;;;;;29.63;16.02;;;;;;;;;;6099962;23;20024;-88
2022/05/10 05:05:15;;;;;;;25.88;15.85;;;;;;;;;;6101223;23;20395;-87
2022/05/10 05:07:41;;;;;;;26.60;15.50;;;;;;;;;;6123951;23;20013;-87
2022/05/10 05:10:08;;;;;;;26.65;15.93;;;;;;;;;;6098025;23;20017;-87
2022/05/10 05:12:34;;;;;;;29.50;15.98;;;;;;;;;;6124006;23;20104;-87
2022/05/10 05:15:01;;;;;;;29.30;15.25;;;;;;;;;;6121791;23;20690;-88
2022/05/10 05:17:28;;;;;;;25.65;15.57;;;;;;;;;;6124965;23;20021;-87
2022/05/10 05:19:54;;;;;;;29.42;15.70;;;;;;;;;;6098679;23;20021;-89
2022/05/10 05:22:20;;;;;;;27.73;16.30;;;;;;;;;;6120094;23;20013;-87
2022/05/10 05:24:46;;;;;;;31.83;16.70;;;;;;;;;;6094748;23;20363;-89
2022/05/10 05:27:12;;;;;;;27.55;16.95;;;;;;;;;;6122461;23;20009;-88
2022/05/10 05:29:39;;;;;;;27.77;16.30;;;;;;;;;;6122655;23;20008;-87
2022/05/10 05:32:07;;;;;;;29.25;15.80;;;;;;;;;;6123860;23;20323;-86
2022/05/10 05:34:35;;;;;;;26.15;16.90;;;;;;;;;;6122779;23;20025;-89
2022/05/10 05:39:46;;;;;;;42.05;16.90;;;;;;;;;;6149995;23;20302;-86
2022/05/10 05:42:12;;;;;;;26.92;16.25;;;;;;;;;;6103328;23;20083;-87
2022/05/10 05:44:38;;;;;;;23.67;16.75;;;;;;;;;;6102829;23;20040;-90
2022/05/10 05:47:05;;;;;;;26.48;16.48;;;;;;;;;;6101607;23;20020;-86
2022/05/10 05:49:31;;;;;;;28.48;16.95;;;;;;;;;;6099069;23;20521;-88
2022/05/10 05:51:58;;;;;;;22.38;15.82;;;;;;;;;;6126785;23;20067;-87
2022/05/10 05:54:24;;;;;;;23.50;17.13;;;;;;;;;;6127079;23;20456;-87
2022/05/10 05:56:51;;;;;;;26.38;16.55;;;;;;;;;;6103238;23;20013;-87
2022/05/10 05:59:17;;;;;;;27.75;16.75;;;;;;;;;;6124699;23;20403;-86
2022/05/10 06:01:43;;;;;;;29.30;16.55;;;;;;;;;;6125405;23;20521;-90
2022/05/10 06:04:09;;;;;;;25.42;16.02;;;;;;;;;;6101007;23;20478;-90
2022/05/10 06:06:36;;;;;;;30.52;16.98;;;;;;;;;;6103218;23;20020;-90
2022/05/10 06:09:02;;;;;;;27.52;15.75;;;;;;;;;;6128219;23;20529;-90
2022/05/10 06:11:28;;;;;;;29.50;16.00;;;;;;;;;;6098734;23;20644;-89
2022/05/10 06:13:54;;;;;;;25.73;15.73;;;;;;;;;;6127729;23;20032;-88
2022/05/10 06:16:20;;;;;;;25.65;15.50;;;;;;;;;;6102276;23;20477;-88
2022/05/10 06:18:46;;;;;;;25.08;14.95;;;;;;;;;;6101444;23;20020;-88
2022/05/10 06:21:12;;;;;;;20.45;15.15;;;;;;;;;;6098750;23;20256;-87
2022/05/10 06:23:38;;;;;;;25.73;15.13;;;;;;;;;;6101994;23;20316;-89
2022/05/10 06:26:05;;;;;;;31.35;14.73;;;;;;;;;;6126156;23;20017;-88
2022/05/10 06:28:31;;;;;;;23.30;15.55;;;;;;;;;;6100228;23;20450;-88
2022/05/10 06:30:57;;;;;;;25.52;14.93;;;;;;;;;;6103154;23;20262;-88
2022/05/10 06:33:23;;;;;;;24.60;14.73;;;;;;;;;;6098201;23;20020;-90
2022/05/10 06:35:49;;;;;;;23.77;14.23;;;;;;;;;;6125763;23;20215;-88
2022/05/10 06:38:27;;;;;;;21.95;14.00;;;;;;;;;;6102982;23;20230;-87
2022/05/10 06:40:54;;;;;;;21.88;13.52;;;;;;;;;;6104532;23;20099;-87
2022/05/10 06:43:20;;;;;;;24.02;14.70;;;;;;;;;;6123015;23;20017;-86
2022/05/10 06:45:46;;;;;;;20.17;13.15;;;;;;;;;;6102521;23;20017;-87
2022/05/10 06:48:13;;;;;;;22.92;12.80;;;;;;;;;;6103285;23;20240;-87
2022/05/10 06:50:40;;;;;;;18.88;12.68;;;;;;;;;;6128956;23;20009;-86
2022/05/10 06:53:06;;;;;;;19.00;12.38;;;;;;;;;;6124025;23;20024;-88
2022/05/10 06:55:33;;;;;;;18.40;12.32;;;;;;;;;;6100710;23;20068;-87
2022/05/10 06:58:03;;;;;;;17.92;11.88;;;;;;;;;;6100980;23;20024;-87
2022/05/10 07:00:29;;;;;;;18.73;11.73;;;;;;;;;;6125863;23;20023;-86
2022/05/10 07:02:56;;;;;;;18.50;11.95;;;;;;;;;;6100921;23;20339;-87
2022/05/10 07:05:22;;;;;;;20.77;11.93;;;;;;;;;;6121854;23;20020;-88
2022/05/10 07:07:49;;;;;;;19.23;12.35;;;;;;;;;;6125342;23;20009;-88
2022/05/10 07:10:17;;;;;;;18.55;11.13;;;14.20;99.90;;;;;;6101323;23;20096;-86
2022/05/10 07:12:44;;;;;;;22.52;12.23;;;;;;;;;;6124741;23;20021;-87
2022/05/10 07:15:12;;;;;;;18.55;11.70;;;;;;;;;;6101118;23;20023;-88
2022/05/10 07:17:38;;;;;;;19.60;11.70;;;17.60;99.90;;;;;;6126548;23;20159;-87
2022/05/10 07:20:08;;;;;;;22.42;11.40;;;;;;;;;;6100185;23;20017;-86
2022/05/10 07:22:35;;;;;;;21.48;12.23;;;;;;;;;;6126267;23;20017;-87
2022/05/10 07:25:01;;;;;;;22.88;11.70;;;;;;;;;;6121791;23;20017;-87
2022/05/10 07:27:27;;;;;;;19.15;11.70;;;;;;;;;;6101732;23;20025;-87
2022/05/10 07:29:53;;;;;;;24.75;11.68;;;;;;;;;;6124998;23;20013;-88
2022/05/10 07:32:20;;;;;;;19.45;12.45;;;;;;;;;;6101585;23;20095;-86
2022/05/10 07:34:46;;;;;;;22.33;12.18;;;;;;;;;;6123816;23;20020;-89
2022/05/10 07:37:13;;;;;;;21.45;11.90;;;;;;;;;;6102499;23;20023;-87
2022/05/10 07:39:40;;;;;;;27.33;12.23;;;;;;;;;;6126969;23;20044;-87
2022/05/10 07:42:06;;;;;;;17.23;10.68;;;;;;;;;;6102027;23;20455;-86
2022/05/10 07:44:34;;;;;;;25.70;12.20;;;;;;;;;;6128093;23;20103;-89
2022/05/10 07:47:00;;;;;;;20.23;12.35;;;;;;;;;;6099614;23;20044;-90
2022/05/10 07:49:27;;;;;;;23.00;12.45;;;;;;;;;;6129467;23;20132;-88
2022/05/10 07:51:53;;;;;;;21.52;12.32;;;;;;;;;;6125605;23;20017;-88
2022/05/10 07:54:19;;;;;;;22.35;11.98;;;;;;;;;;6101072;23;20027;-88
2022/05/10 07:56:45;;;;;;;20.55;12.43;;;;;;;;;;6099871;23;20099;-88
2022/05/10 07:59:12;;;;;;;16.90;12.50;;;;;;;;;;6126169;23;20044;-87
2022/05/10 08:01:38;;;;;;;19.70;13.40;;;;;;;;;;6101291;23;20321;-88
2022/05/10 08:04:05;;;;;;;21.45;12.95;;;;;;;;;;6098262;23;20052;-88
2022/05/10 08:06:34;;;;;;;20.42;12.65;;;;;;;;;;6122551;23;20469;-90
2022/05/10 08:09:03;;;;;;;17.38;12.63;;;;;;;;;;6126667;23;20009;-89
2022/05/10 08:11:33;;;;;;;17.70;11.95;;;;;;;;;;6102924;23;20009;-88
2022/05/10 08:13:59;;;;;;;16.55;11.45;;;17.90;99.90;;;;;;6125355;23;20482;-88
2022/05/10 08:16:31;;;;;;;23.23;13.18;;;20.90;92.50;;;;;;6101754;23;20016;-88
2022/05/10 08:18:57;;;;;;;24.90;13.27;;;;;;;;;;6123770;23;20035;-87
2022/05/10 08:21:23;;;;;;;34.13;12.75;;;;;;;;;;6125498;23;20013;-88
2022/05/10 08:26:46;;;;;;;21.88;10.45;;;;;;;;;;6148189;23;20515;-86
2022/05/10 08:29:12;;;;;;;20.25;10.35;;;;;;;;;;6124085;23;20170;-86
2022/05/10 08:31:44;;;;;;;16.85;9.60;;;;;;;;;;6102349;23;20016;-87
2022/05/10 08:34:10;;;;;;;16.63;8.82;;;;;;;;;;6101698;23;20024;-88
2022/05/10 08:36:36;;;;;;;16.95;8.18;;;;;;;;;;6103430;23;20021;-86
2022/05/10 08:39:03;;;;;;;20.80;8.85;;;;;;;;;;6101111;23;20469;-86
2022/05/10 08:42:07;;;;;;;20.92;9.00;;;;;;;;;;6127396;23;20041;-88
2022/05/10 08:44:35;;;;;;;14.07;8.95;;;;;;;;;;5982343;23;20023;-87
2022/05/10 08:47:10;;;;;;;16.08;8.27;;;;;;;;;;5950448;24;20637;-86
2022/05/10 08:49:45;;;;;;;18.50;8.90;;;;;;;;;;6012953;23;20014;-87
2022/05/10 08:52:18;;;;;;;20.88;9.55;;;;;;;;;;6064828;23;20049;-89
2022/05/10 08:54:54;;;;;;;15.65;8.68;;;;;;;;;;6065559;23;20151;-89
2022/05/10 08:57:50;;;;;;;13.20;9.00;;;;;;;;;;6064391;23;20070;-88
2022/05/10 09:00:42;;;;;;;14.23;8.13;;;;;;;;;;6060559;23;20105;-87
2022/05/10 09:03:18;;;;;;;15.55;8.57;;;;;;;;;;6013680;23;20014;-85
2022/05/10 09:05:45;;;;;;;15.15;9.02;;;;;;;;;;6061985;23;20019;-90
2022/05/10 09:08:37;;;;;;;15.32;8.85;;;;;;;;;;6061148;23;20402;-91
2022/05/10 09:11:15;;;;;;;19.80;9.30;;;;;;;;;;6059619;23;20372;-88
2022/05/10 09:13:46;;;;;;;13.82;8.25;;;;;;;;;;6037772;23;20018;-93
2022/05/10 09:16:23;;;;;;;24.48;10.07;;;;;;;;;;6037390;23;20069;-90
2022/05/10 09:18:59;;;;;;;;;;;;;;;;;;6117683;23;20021;-90
2022/05/10 09:21:29;;;;;;;20.38;10.07;;;;;;;;;;6127428;23;19987;-91
2022/05/10 09:24:12;;;;;;;18.38;10.48;;;;;;;;;;6149941;23;20021;-88
2022/05/10 09:26:55;;;;;;;17.98;10.20;;;;;;;;;;6130021;23;20063;-91
2022/05/10 09:29:27;;;;;;;18.75;10.20;;;;;;;;;;6127166;23;20013;-90
2022/05/10 09:34:50;;;;;;;17.65;10.20;;;;;;;;;;6152384;23;20024;-89
2022/05/10 09:40:44;;;;;;;;;;;;;;;;;;6115043;23;20017;-90
2022/05/10 09:46:34;;;;;;;14.30;8.60;;;;;;;;;;6179943;23;20593;-88
2022/05/10 09:49:25;;;;;;;18.23;9.57;;;;;;;;;;6104680;23;20060;-88
2022/05/10 09:52:22;;;;;;;16.85;9.52;;;;;;;;;;6152933;23;20017;-91
2022/05/10 09:55:15;;;;;;;20.30;10.15;;;;;;;;;;6128934;23;20512;-91
2022/05/10 09:57:43;;;;;;;14.60;9.40;;;;;;;;;;6128895;23;20016;-88
2022/05/10 10:00:15;;;;;;;18.73;9.02;;;;;;;;;;6105870;23;20446;-88
2022/05/10 10:02:44;;;;;;;17.10;7.97;;;;;;;;;;6127728;23;20099;-89
2022/05/10 10:05:40;;;;;;;13.73;9.20;;;;;;;;;;6103110;23;20226;-87
2022/05/10 10:08:12;;;;;;;14.80;8.00;;;;;;;;;;6001170;23;20450;-91
2022/05/10 10:10:38;;;;;;;21.58;8.27;;;;;;;;;;6102244;23;20446;-86
2022/05/10 10:13:29;;;;;;;17.60;8.63;;;;;;;;;;6128865;23;20328;-90
2022/05/10 10:15:55;;;;;;;15.30;7.82;;;;;;;;;;6127546;23;20525;-88
2022/05/10 10:18:43;;;;;;;12.98;7.82;;;;;;;;;;6128246;23;20354;-87
2022/05/10 10:21:13;;;;;;;18.02;8.02;;;;;;;;;;6128892;23;20079;-89
2022/05/10 10:23:48;;;;;;;16.52;7.88;;;;;;;;;;6127865;23;20421;-88
2022/05/10 10:26:33;;;;;;;11.95;6.28;;;;;;;;;;6128361;23;20164;-87
2022/05/10 10:29:05;;;;;;;17.02;6.88;;;;;;;;;;6128389;23;20275;-87
2022/05/10 10:31:37;;;;;;;14.40;7.18;;;;;;;;;;6129071;23;20013;-88
2022/05/10 10:34:22;;;;;;;12.40;7.80;;;;;;;;;;6129429;23;20015;-88
2022/05/10 10:36:58;;;;;;;16.98;7.63;;;;;;;;;;6128079;23;20036;-90
2022/05/10 10:39:30;;;;;;;10.85;6.25;;;;;;;;;;6128135;23;20013;-88
2022/05/10 10:42:02;;;;;;;14.10;7.30;;;;;;;;;;6128755;23;20016;-89
2022/05/10 10:44:30;;;;;;;11.75;6.35;;;;;;;;;;6127588;23;20013;-88
2022/05/10 10:47:17;;;;;;;11.52;6.80;;;;;;;;;;6128269;23;20016;-90
2022/05/10 10:50:02;;;;;;;10.20;6.28;;;;;;;;;;6128075;23;20100;-89
2022/05/10 10:52:31;;;;;;;10.52;6.55;;;;;;;;;;6126646;23;20111;-86
2022/05/10 10:55:03;;;;;;;15.32;5.93;;;;;;;;;;6103164;23;20207;-86
2022/05/10 10:57:32;;;;;;;13.55;6.60;;;;;;;;;;6126849;23;20016;-89
2022/05/10 11:00:22;;;;;;;13.88;7.57;;;;;;;;;;6126432;23;20020;-89
2022/05/10 11:03:08;;;;;;;14.13;6.65;;;;;;;;;;6127863;23;20514;-86
2022/05/10 11:05:54;;;;;;;14.05;6.43;;;;;;;;;;6129617;23;20021;-87
2022/05/10 11:08:27;;;;;;;11.93;7.70;;;;;;;;;;6054708;23;20013;-88
2022/05/10 11:11:12;;;;;;;10.50;7.10;;;;;;;;;;6127278;23;20017;-86
2022/05/10 11:13:50;;;;;;;13.65;7.38;;;;;;;;;;6126981;23;20020;-87
2022/05/10 11:16:35;;;;;;;15.00;7.78;;;;;;;;;;6126374;23;20016;-89
2022/05/10 11:19:20;;;;;;;11.82;8.07;;;;;;;;;;6127343;23;20035;-89
2022/05/10 11:21:55;;;;;;;15.52;7.45;;;;;;;;;;6127725;23;20020;-89
2022/05/10 11:24:22;;;;;;;11.55;7.22;;;;;;;;;;6126287;23;20159;-87
2022/05/10 11:27:00;;;;;;;22.38;8.18;;;;;;;;;;6127208;23;20017;-87
2022/05/10 11:29:33;;;;;;;19.27;7.53;;;;;;;;;;6127605;23;20048;-86
2022/05/10 11:32:03;;;;;;;17.10;7.63;;;;;;;;;;6129560;23;20013;-88
2022/05/10 11:35:08;;;;;;;9.55;6.65;;;;;;;;;;6128066;23;20017;-88
2022/05/10 11:37:39;;;;;;;9.98;6.45;;;;;;;;;;6126374;23;20514;-86
2022/05/10 11:40:25;;;;;;;10.85;7.28;;;;;;;;;;6126964;23;20328;-86
2022/05/10 11:42:54;;;;;;;12.25;6.68;;;;;;;;;;6126743;23;20017;-84
2022/05/10 11:45:35;;;;;;;13.57;6.80;;;;;;;;;;6125889;23;20099;-86
2022/05/10 11:48:32;;;;;;;11.18;6.05;;;;;;;;;;6126834;23;20013;-88
2022/05/10 11:54:09;;;;;;;13.63;6.40;;;;;;;;;;6150687;23;20454;-88
2022/05/10 11:56:51;;;;;;;17.38;7.25;;;;;;;;;;6126435;23;20398;-86
2022/05/10 11:59:27;;;;;;;10.88;6.55;;;;;;;;;;6126160;23;20015;-91
2022/05/10 12:02:03;;;;;;;15.20;6.53;;;;;;;;;;6125930;23;20013;-88
2022/05/10 12:04:29;;;;;;;16.50;6.38;;;;;;;;;;6125345;23;20017;-88
2022/05/10 12:06:55;;;;;;;18.38;7.22;;;;;;;;;;6126422;23;20068;-88
2022/05/10 12:09:55;;;;;;;19.15;7.15;;;20.90;91.50;;;;;;6101268;23;20040;-86
2022/05/10 12:12:36;;;;;;;16.98;6.97;;;;;;;;;;6154052;23;20317;-88
2022/05/10 12:21:19;;;;;;;12.68;5.80;;;;;;;;;;6154861;23;20079;-86
2022/05/10 12:21:23;;;;;;;10.18;6.10;;;;;;;;;;6152139;23;20057;-89
2022/05/10 12:24:12;;;;;;;14.77;6.95;;;;;;;;;;6100281;23;20274;-88
2022/05/10 12:26:43;;;;;;;20.58;7.35;;;;;;;;;;6102116;23;20028;-87
2022/05/10 12:29:28;;;;;;;14.73;6.07;;;;;;;;;;6102633;23;20020;-89
2022/05/10 12:32:01;;;;;;;14.98;6.47;;;;;;;;;;6103079;23;20021;-88
2022/05/10 12:34:52;;;;;;;13.45;6.03;;;;;;;;;;6098470;23;20427;-87
2022/05/10 12:37:33;;;;;;;12.30;5.88;;;;;;;;;;6096399;23;20044;-87
2022/05/10 12:40:11;;;;;;;17.65;6.50;;;24.00;60.40;;;;;;6097707;23;20045;-88
2022/05/10 12:43:10;;;;;;;15.43;5.70;;;24.40;55.90;;;;;;6096616;23;20455;-90
2022/05/10 12:46:06;;;;;;;17.65;6.40;;;24.30;55.40;;;;;;6096025;23;20017;-87
2022/05/10 12:48:50;;;;;;;11.57;6.25;;;24.20;56.00;;;;;;6120836;23;20009;-86
2022/05/10 12:52:01;;;;;;;14.13;6.32;;;24.10;57.00;;;;;;6096695;23;20037;-88
2022/05/10 12:54:42;;;;;;;9.95;5.80;;;24.20;56.70;;;;;;6081339;23;20398;-87
2022/05/10 12:57:21;;;;;;;12.55;6.13;;;24.30;56.40;;;;;;6121961;23;20088;-86
2022/05/10 13:00:14;;;;;;;11.60;6.00;;;24.60;56.10;;;;;;6096562;23;20498;-88
2022/05/10 13:03:04;;;;;;;9.27;6.07;;;24.80;55.60;;;;;;6122171;23;20018;-87
2022/05/10 13:05:46;;;;;;;17.27;6.07;;;;;;;;;;6122998;23;20079;-87
2022/05/10 13:08:31;;;;;;;11.30;5.50;;;;;;;;;;6097450;23;20020;-87
2022/05/10 13:11:02;;;;;;;8.35;5.40;;;;;;;;;;6097016;23;20096;-89
2022/05/10 13:13:33;;;;;;;10.43;6.15;;;;;;;;;;6097618;23;20017;-89
2022/05/10 13:16:20;;;;;;;14.00;5.35;;;24.90;54.60;;;;;;6096039;23;20009;-87
2022/05/10 13:18:53;;;;;;;12.70;5.88;;;;;;;;;;6122709;23;20402;-87
2022/05/10 13:21:35;;;;;;;15.13;6.05;;;;;;;;;;6125701;23;20052;-90
2022/05/10 13:24:10;;;;;;;9.15;4.88;;;;;;;;;;6099277;23;20010;-86
2022/05/10 13:26:36;;;;;;;10.97;5.73;;;;;;;;;;6096068;23;20068;-87
2022/05/10 13:29:03;;;;;;;13.90;5.50;;;;;;;;;;6098287;23;20482;-88
2022/05/10 13:31:38;;;;;;;17.45;5.95;;;;;;;;;;6099627;23;20466;-89
2022/05/10 13:34:08;;;;;;;15.13;5.03;;;;;;;;;;6099558;23;20064;-88
2022/05/10 13:36:36;;;;;;;14.30;6.25;;;;;;;;;;6097707;23;20088;-86
2022/05/10 13:39:08;;;;;;;16.40;5.28;;;;;;;;;;6100545;23;20009;-87
2022/05/10 13:41:38;;;;;;;14.65;6.22;;;;;;;;;;6097489;23;20342;-91
2022/05/10 13:44:09;;;;;;;13.27;5.90;;;;;;;;;;6120893;23;20013;-87
2022/05/10 13:47:00;;;;;;;15.85;5.25;;;;;;;;;;6096722;23;20134;-87
2022/05/10 13:49:39;;;;;;;13.25;5.15;;;;;;;;;;6099065;23;20013;-87
2022/05/10 13:52:06;;;;;;;12.05;6.13;;;;;;;;;;6098022;23;20072;-87
2022/05/10 13:54:34;;;;;;;12.00;6.03;;;24.40;55.70;;;;;;6099405;23;20017;-86
2022/05/10 13:57:10;;;;;;;11.98;5.95;;;23.60;58.90;;;;;;6121078;23;20021;-86
2022/05/10 13:59:37;;;;;;;16.38;5.90;;;;;;;;;;6097034;23;20017;-87
2022/05/10 14:02:07;;;;;;;16.95;4.97;;;;;;;;;;6094284;23;20013;-87
2022/05/10 14:04:34;;;;;;;9.90;4.68;;;;;;;;;;6096768;23;20382;-86
2022/05/10 14:07:05;;;;;;;12.57;5.30;;;;;;;;;;6095839;23;20481;-89
2022/05/10 14:09:40;;;;;;;11.32;4.65;;;;;;;;;;6095728;23;20400;-88
2022/05/10 14:12:27;;;;;;;17.50;5.20;;;;;;;;;;6096216;23;20576;-87
2022/05/10 14:14:56;;;;;;;14.25;4.30;;;;;;;;;;6096844;23;20018;-87
2022/05/10 14:17:25;;;;;;;15.45;4.90;;;;;;;;;;6097965;23;20072;-87
2022/05/10 14:19:52;;;;;;;8.23;3.92;;;;;;;;;;6100130;23;20398;-88
2022/05/10 14:22:27;;;;;;;10.27;3.60;;;;;;;;;;6098801;23;20447;-89
2022/05/10 14:25:00;;;;;;;13.60;3.75;;;23.50;58.70;;;;;;6096512;23;20401;-88
2022/05/10 14:27:30;;;;;;;18.50;4.00;;;;;;;;;;6071942;23;20043;-90
2022/05/10 14:29:58;;;;;;;9.10;3.50;;;;;;;;;;6097265;23;20441;-89
2022/05/10 14:32:28;;;;;;;12.50;3.42;;;;;;;;;;6095320;23;20013;-87
2022/05/10 14:34:55;;;;;;;12.05;3.42;;;;;;;;;;6095530;23;20039;-89
2022/05/10 14:37:28;;;;;;;15.27;3.65;;;;;;;;;;6121399;23;20024;-85
2022/05/10 14:39:57;;;;;;;12.60;3.35;;;;;;;;;;6096784;23;20014;-87
2022/05/10 14:42:25;;;;;;;8.80;3.40;;;;;;;;;;6097180;23;20036;-86
2022/05/10 14:44:51;;;;;;;8.90;3.88;;;;;;;;;;6098197;23;20021;-87
2022/05/10 14:47:27;;;;;;;11.88;3.38;;;;;;;;;;6097097;23;20442;-89
2022/05/10 14:49:53;;;;;;;13.73;2.88;;;;;;;;;;6094114;23;20014;-85
2022/05/10 14:52:21;;;;;;;6.10;2.70;;;;;;;;;;6096716;23;20018;-88
2022/05/10 14:54:47;;;;;;;8.77;2.85;;;;;;;;;;6097149;23;20055;-89
2022/05/10 14:57:25;;;;;;;9.98;2.40;;;;;;;;;;6093971;23;20041;-91
2022/05/10 14:59:56;;;;;;;6.78;2.13;;;;;;;;;;6096272;23;20017;-89
2022/05/10 15:02:23;;;;;;;8.88;2.15;;;;;;;;;;6095892;23;20477;-86
2022/05/10 15:04:49;;;;;;;7.45;1.80;;;;;;;;;;6095943;23;20510;-86
2022/05/10 15:07:15;;;;;;;11.35;1.98;;;22.90;55.60;;;;;;6095983;23;20096;-89
2022/05/10 15:09:41;;;;;;;7.20;1.60;;;21.20;54.30;;;;;;6049209;23;20048;-88
2022/05/10 15:14:54;;;;;;;3.03;1.30;;;21.00;54.10;;;;;;6099464;23;20024;-88
2022/05/10 15:17:20;;;;;;;7.97;1.38;;;20.90;53.30;;;;;;6097948;23;20049;-87
2022/05/10 15:19:48;;;;;;;8.50;1.70;;;20.80;52.40;;;;;;6096747;23;20239;-87